Terminal Aerodrome Forecast
Issued by NWS

Home | Current Version | Previous Version | Text Only | Print | Product List | Glossary On
Versions: 1 2 3 4 5 6 7 8 9 10 11 12 13 14
000
FTUS41 KAKQ 270539
TAFPHF
TAF
KPHF 270539Z 2706/2806 22012KT P6SM SCT150 BKN250
     FM270800 01012G20KT P6SM BKN015 OVC040
     FM271000 01012KT P6SM SCT008 OVC015
      TEMPO 2710/2713 BKN008
     FM271300 02012KT 4SM -RA BR OVC008
     FM272000 36010KT 5SM -RA BR OVC012
     FM280000 34012KT P6SM BKN025=

USA.gov is the U.S. government's official web portal to all federal, state and local government web resources and services.